< < Back
Terminal Aerodrome Forecast


Current Version              Previous Versions:   1  2  3  4  5  6  7  8  9  

Terminal Aerodrome Forecast

452
FTUS42 KGSP 281137
TAFGSP
TAF
KGSP 281137Z 2812/2912 34007KT P6SM FEW250
     FM281800 31010G18KT P6SM FEW250
     FM290000 34007KT P6SM FEW250
     FM290700 36003KT P6SM SKC=



Latest METAR

762
SAUS70 KWBC 281600 RRC
MTRGSP
METAR KGSP 281553Z 29007G15KT 270V330 10SM CLR 06/M07 A3008 RMK AO2
SLP188 T00611072


USA.gov is the U.S. government's official web portal to all federal, state and local government web resources and services.